Fortuna, California
Current Conditions -  °F | °C
As of 2:35 AM on Sunday 21 Dec 2014 (Local Time) from KFOT Reporting Station
Overcast Overcast  
Wind Chill: 55°   Ceiling: 2100
Heat Index: 55°   Visibility: 2.5mi
Dew Point: 55°   Wind: 7mph
Humidity: 100%   Direction: 130°SE
Pressure: 30.23"   Gusts: NA
Location:  40.6°N, 124.15°W
Report Text: KFOT 211035Z AUTO 13006KT 2 1/2SM FEW003 OVC021 13/13 A3023 RMK AO1 P0001
Loading
Personal Weather Stations






























Interactive Weather Map New forecast layout! Learn more

10-Day Weather Forecast

Advertisements
Track Severe Weather on mobile